sensor_id;sensor_type;location;lat;lon;timestamp;temperature;humidity
67157;SHT31;54086;50.126;8.710;2023-10-13T00:00:27;16.54;96.27
67157;SHT31;54086;50.126;8.710;2023-10-13T00:02:58;16.52;96.50
67157;SHT31;54086;50.126;8.710;2023-10-13T00:05:30;16.43;96.71
67157;SHT31;54086;50.126;8.710;2023-10-13T00:07:57;16.42;96.76
67157;SHT31;54086;50.126;8.710;2023-10-13T00:10:26;16.46;96.70
67157;SHT31;54086;50.126;8.710;2023-10-13T00:12:52;16.47;96.66
67157;SHT31;54086;50.126;8.710;2023-10-13T00:15:18;16.42;96.68
67157;SHT31;54086;50.126;8.710;2023-10-13T00:17:46;16.44;96.70
67157;SHT31;54086;50.126;8.710;2023-10-13T00:20:12;16.40;96.52
67157;SHT31;54086;50.126;8.710;2023-10-13T00:22:57;16.42;96.61
67157;SHT31;54086;50.126;8.710;2023-10-13T00:25:23;16.44;96.65
67157;SHT31;54086;50.126;8.710;2023-10-13T00:27:52;16.46;96.60
67157;SHT31;54086;50.126;8.710;2023-10-13T00:30:18;16.47;96.46
67157;SHT31;54086;50.126;8.710;2023-10-13T00:32:52;16.52;96.19
67157;SHT31;54086;50.126;8.710;2023-10-13T00:35:25;16.50;96.32
67157;SHT31;54086;50.126;8.710;2023-10-13T00:37:54;16.50;96.18
67157;SHT31;54086;50.126;8.710;2023-10-13T00:40:21;16.59;96.04
67157;SHT31;54086;50.126;8.710;2023-10-13T00:42:56;16.52;96.15
67157;SHT31;54086;50.126;8.710;2023-10-13T00:45:33;16.50;96.40
67157;SHT31;54086;50.126;8.710;2023-10-13T00:47:59;16.47;96.24
67157;SHT31;54086;50.126;8.710;2023-10-13T00:50:26;16.54;96.32
67157;SHT31;54086;50.126;8.710;2023-10-13T00:52:55;16.50;96.35
67157;SHT31;54086;50.126;8.710;2023-10-13T00:55:21;16.49;96.45
67157;SHT31;54086;50.126;8.710;2023-10-13T00:57:54;16.52;96.54
67157;SHT31;54086;50.126;8.710;2023-10-13T01:00:22;16.44;96.48
67157;SHT31;54086;50.126;8.710;2023-10-13T01:02:53;16.43;96.72
67157;SHT31;54086;50.126;8.710;2023-10-13T01:05:22;16.44;96.77
67157;SHT31;54086;50.126;8.710;2023-10-13T01:07:49;16.44;96.66
67157;SHT31;54086;50.126;8.710;2023-10-13T01:10:19;16.40;96.65
67157;SHT31;54086;50.126;8.710;2023-10-13T01:12:48;16.39;96.81
67157;SHT31;54086;50.126;8.710;2023-10-13T01:15:18;16.39;96.68
67157;SHT31;54086;50.126;8.710;2023-10-13T01:17:46;16.39;96.71
67157;SHT31;54086;50.126;8.710;2023-10-13T01:20:15;16.42;96.69
67157;SHT31;54086;50.126;8.710;2023-10-13T01:22:52;16.42;96.62
67157;SHT31;54086;50.126;8.710;2023-10-13T01:25:24;16.47;96.55
67157;SHT31;54086;50.126;8.710;2023-10-13T01:27:53;16.43;96.65
67157;SHT31;54086;50.126;8.710;2023-10-13T01:30:19;16.46;96.51
67157;SHT31;54086;50.126;8.710;2023-10-13T01:32:52;16.46;96.65
67157;SHT31;54086;50.126;8.710;2023-10-13T01:35:19;16.49;96.50
67157;SHT31;54086;50.126;8.710;2023-10-13T01:37:50;16.47;96.46
67157;SHT31;54086;50.126;8.710;2023-10-13T01:40:15;16.53;96.42
67157;SHT31;54086;50.126;8.710;2023-10-13T01:42:45;16.47;96.50
67157;SHT31;54086;50.126;8.710;2023-10-13T01:45:11;16.44;96.93
67157;SHT31;54086;50.126;8.710;2023-10-13T01:47:39;16.44;96.75
67157;SHT31;54086;50.126;8.710;2023-10-13T01:50:06;16.46;96.68
67157;SHT31;54086;50.126;8.710;2023-10-13T01:52:47;16.42;96.89
67157;SHT31;54086;50.126;8.710;2023-10-13T01:55:13;16.36;96.80
67157;SHT31;54086;50.126;8.710;2023-10-13T01:57:40;16.34;96.99
67157;SHT31;54086;50.126;8.710;2023-10-13T02:00:08;16.32;97.09
67157;SHT31;54086;50.126;8.710;2023-10-13T02:02:44;16.32;97.09
67157;SHT31;54086;50.126;8.710;2023-10-13T02:05:10;16.36;97.00
67157;SHT31;54086;50.126;8.710;2023-10-13T02:07:37;16.40;96.86
67157;SHT31;54086;50.126;8.710;2023-10-13T02:10:04;16.40;96.66
67157;SHT31;54086;50.126;8.710;2023-10-13T02:12:31;16.42;96.68
67157;SHT31;54086;50.126;8.710;2023-10-13T02:15:12;16.43;96.25
67157;SHT31;54086;50.126;8.710;2023-10-13T02:17:39;16.46;96.26
67157;SHT31;54086;50.126;8.710;2023-10-13T02:20:08;16.47;96.29
67157;SHT31;54086;50.126;8.710;2023-10-13T02:22:39;16.50;96.22
67157;SHT31;54086;50.126;8.710;2023-10-13T02:25:05;16.50;96.14
67157;SHT31;54086;50.126;8.710;2023-10-13T02:27:34;16.53;96.00
67157;SHT31;54086;50.126;8.710;2023-10-13T02:30:07;16.49;96.17
67157;SHT31;54086;50.126;8.710;2023-10-13T02:32:38;16.49;96.17
67157;SHT31;54086;50.126;8.710;2023-10-13T02:35:06;16.47;96.39
67157;SHT31;54086;50.126;8.710;2023-10-13T02:37:34;16.47;96.36
67157;SHT31;54086;50.126;8.710;2023-10-13T02:40:01;16.43;96.65
67157;SHT31;54086;50.126;8.710;2023-10-13T02:42:26;16.42;96.65
67157;SHT31;54086;50.126;8.710;2023-10-13T02:44:52;16.36;96.79
67157;SHT31;54086;50.126;8.710;2023-10-13T02:47:22;16.30;97.02
67157;SHT31;54086;50.126;8.710;2023-10-13T02:49:49;16.27;97.18
67157;SHT31;54086;50.126;8.710;2023-10-13T02:52:15;16.23;97.23
67157;SHT31;54086;50.126;8.710;2023-10-13T02:54:41;16.26;97.24
67157;SHT31;54086;50.126;8.710;2023-10-13T02:57:13;16.20;97.33
67157;SHT31;54086;50.126;8.710;2023-10-13T02:59:41;16.19;97.43
67157;SHT31;54086;50.126;8.710;2023-10-13T03:02:15;16.20;97.38
67157;SHT31;54086;50.126;8.710;2023-10-13T03:04:49;16.19;97.28
67157;SHT31;54086;50.126;8.710;2023-10-13T03:07:15;16.19;97.38
67157;SHT31;54086;50.126;8.710;2023-10-13T03:09:47;16.24;97.52
67157;SHT31;54086;50.126;8.710;2023-10-13T03:12:22;16.26;97.41
67157;SHT31;54086;50.126;8.710;2023-10-13T03:14:49;16.23;97.35
67157;SHT31;54086;50.126;8.710;2023-10-13T03:17:20;16.20;97.38
67157;SHT31;54086;50.126;8.710;2023-10-13T03:19:58;16.19;97.41
67157;SHT31;54086;50.126;8.710;2023-10-13T03:22:24;16.20;97.41
67157;SHT31;54086;50.126;8.710;2023-10-13T03:24:56;16.19;97.34
67157;SHT31;54086;50.126;8.710;2023-10-13T03:27:25;16.23;97.31
67157;SHT31;54086;50.126;8.710;2023-10-13T03:30:05;16.22;97.26
67157;SHT31;54086;50.126;8.710;2023-10-13T03:32:36;16.32;97.16
67157;SHT31;54086;50.126;8.710;2023-10-13T03:35:07;16.32;97.01
67157;SHT31;54086;50.126;8.710;2023-10-13T03:37:54;16.32;96.92
67157;SHT31;54086;50.126;8.710;2023-10-13T03:40:21;16.29;96.70
67157;SHT31;54086;50.126;8.710;2023-10-13T03:42:51;16.33;96.80
67157;SHT31;54086;50.126;8.710;2023-10-13T03:45:36;16.26;96.52
67157;SHT31;54086;50.126;8.710;2023-10-13T03:48:12;16.32;96.46
67157;SHT31;54086;50.126;8.710;2023-10-13T03:50:50;16.33;96.28
67157;SHT31;54086;50.126;8.710;2023-10-13T03:53:42;16.39;96.25
67157;SHT31;54086;50.126;8.710;2023-10-13T03:56:21;16.36;96.12
67157;SHT31;54086;50.126;8.710;2023-10-13T03:58:57;16.34;96.26
67157;SHT31;54086;50.126;8.710;2023-10-13T04:01:31;16.30;95.80
67157;SHT31;54086;50.126;8.710;2023-10-13T04:03:59;16.32;95.72
67157;SHT31;54086;50.126;8.710;2023-10-13T04:06:37;16.40;95.50
67157;SHT31;54086;50.126;8.710;2023-10-13T04:11:56;16.34;96.04
67157;SHT31;54086;50.126;8.710;2023-10-13T04:14:28;16.36;96.06
67157;SHT31;54086;50.126;8.710;2023-10-13T04:17:12;16.36;95.53
67157;SHT31;54086;50.126;8.710;2023-10-13T04:19:44;16.37;95.31
67157;SHT31;54086;50.126;8.710;2023-10-13T04:22:33;16.43;95.33
67157;SHT31;54086;50.126;8.710;2023-10-13T04:25:13;16.37;95.29
67157;SHT31;54086;50.126;8.710;2023-10-13T04:27:58;16.34;94.97
67157;SHT31;54086;50.126;8.710;2023-10-13T04:30:56;16.34;94.95
67157;SHT31;54086;50.126;8.710;2023-10-13T04:33:31;16.36;95.06
67157;SHT31;54086;50.126;8.710;2023-10-13T04:38:46;16.39;94.86
67157;SHT31;54086;50.126;8.710;2023-10-13T04:41:31;16.37;94.81
67157;SHT31;54086;50.126;8.710;2023-10-13T04:44:01;16.43;94.95
67157;SHT31;54086;50.126;8.710;2023-10-13T04:46:30;16.43;94.50
67157;SHT31;54086;50.126;8.710;2023-10-13T04:49:22;16.50;94.65
67157;SHT31;54086;50.126;8.710;2023-10-13T04:51:58;16.47;94.51
67157;SHT31;54086;50.126;8.710;2023-10-13T04:54:28;16.44;94.59
67157;SHT31;54086;50.126;8.710;2023-10-13T04:57:18;16.49;94.46
67157;SHT31;54086;50.126;8.710;2023-10-13T04:59:45;16.42;94.45
67157;SHT31;54086;50.126;8.710;2023-10-13T05:02:29;16.47;94.46
67157;SHT31;54086;50.126;8.710;2023-10-13T05:05:00;16.43;94.40
67157;SHT31;54086;50.126;8.710;2023-10-13T05:07:32;16.42;94.43
67157;SHT31;54086;50.126;8.710;2023-10-13T05:10:17;16.43;94.39
67157;SHT31;54086;50.126;8.710;2023-10-13T05:13:01;16.47;94.67
67157;SHT31;54086;50.126;8.710;2023-10-13T05:15:49;16.46;94.59
67157;SHT31;54086;50.126;8.710;2023-10-13T05:18:33;16.39;95.06
67157;SHT31;54086;50.126;8.710;2023-10-13T05:21:17;16.39;94.76
67157;SHT31;54086;50.126;8.710;2023-10-13T05:24:03;16.37;94.85
67157;SHT31;54086;50.126;8.710;2023-10-13T05:26:46;16.40;94.49
67157;SHT31;54086;50.126;8.710;2023-10-13T05:29:31;16.49;94.38
67157;SHT31;54086;50.126;8.710;2023-10-13T05:32:15;16.50;94.36
67157;SHT31;54086;50.126;8.710;2023-10-13T05:34:59;16.47;94.42
67157;SHT31;54086;50.126;8.710;2023-10-13T05:37:43;16.52;94.10
67157;SHT31;54086;50.126;8.710;2023-10-13T05:40:27;16.50;94.06
67157;SHT31;54086;50.126;8.710;2023-10-13T05:43:11;16.50;93.76
67157;SHT31;54086;50.126;8.710;2023-10-13T05:46:01;16.56;93.96
67157;SHT31;54086;50.126;8.710;2023-10-13T05:48:45;16.54;93.88
67157;SHT31;54086;50.126;8.710;2023-10-13T05:51:30;16.52;93.71
67157;SHT31;54086;50.126;8.710;2023-10-13T05:53:58;16.53;93.66
67157;SHT31;54086;50.126;8.710;2023-10-13T05:56:45;16.59;93.64
67157;SHT31;54086;50.126;8.710;2023-10-13T05:59:31;16.54;93.68
67157;SHT31;54086;50.126;8.710;2023-10-13T06:02:16;16.52;93.83
67157;SHT31;54086;50.126;8.710;2023-10-13T06:05:04;16.59;93.88
67157;SHT31;54086;50.126;8.710;2023-10-13T06:07:49;16.54;93.74
67157;SHT31;54086;50.126;8.710;2023-10-13T06:10:33;16.56;93.83
67157;SHT31;54086;50.126;8.710;2023-10-13T06:13:18;16.59;93.67
67157;SHT31;54086;50.126;8.710;2023-10-13T06:16:09;16.61;93.75
67157;SHT31;54086;50.126;8.710;2023-10-13T06:18:53;16.60;93.68
67157;SHT31;54086;50.126;8.710;2023-10-13T06:21:38;16.61;93.62
67157;SHT31;54086;50.126;8.710;2023-10-13T06:24:22;16.64;93.55
67157;SHT31;54086;50.126;8.710;2023-10-13T06:27:06;16.67;93.69
67157;SHT31;54086;50.126;8.710;2023-10-13T06:29:50;16.71;93.44
67157;SHT31;54086;50.126;8.710;2023-10-13T06:32:19;16.73;93.51
67157;SHT31;54086;50.126;8.710;2023-10-13T06:34:45;16.75;93.39
67157;SHT31;54086;50.126;8.710;2023-10-13T06:37:11;16.78;93.37
67157;SHT31;54086;50.126;8.710;2023-10-13T06:39:56;16.85;93.30
67157;SHT31;54086;50.126;8.710;2023-10-13T06:42:25;16.88;93.17
67157;SHT31;54086;50.126;8.710;2023-10-13T06:44:55;16.92;93.21
67157;SHT31;54086;50.126;8.710;2023-10-13T06:47:21;17.00;93.00
67157;SHT31;54086;50.126;8.710;2023-10-13T06:49:48;17.02;92.91
67157;SHT31;54086;50.126;8.710;2023-10-13T06:52:16;17.11;92.84
67157;SHT31;54086;50.126;8.710;2023-10-13T06:54:42;17.15;92.91
67157;SHT31;54086;50.126;8.710;2023-10-13T06:57:08;17.23;92.84
67157;SHT31;54086;50.126;8.710;2023-10-13T06:59:40;17.23;92.54
67157;SHT31;54086;50.126;8.710;2023-10-13T07:02:06;17.31;92.46
67157;SHT31;54086;50.126;8.710;2023-10-13T07:04:33;17.40;92.34
67157;SHT31;54086;50.126;8.710;2023-10-13T07:06:59;17.45;92.09
67157;SHT31;54086;50.126;8.710;2023-10-13T07:09:26;17.52;91.74
67157;SHT31;54086;50.126;8.710;2023-10-13T07:12:05;17.62;91.75
67157;SHT31;54086;50.126;8.710;2023-10-13T07:14:48;17.72;91.32
67157;SHT31;54086;50.126;8.710;2023-10-13T07:17:21;17.79;91.19
67157;SHT31;54086;50.126;8.710;2023-10-13T07:19:54;17.86;90.87
67157;SHT31;54086;50.126;8.710;2023-10-13T07:22:23;17.84;90.76
67157;SHT31;54086;50.126;8.710;2023-10-13T07:24:50;17.84;90.78
67157;SHT31;54086;50.126;8.710;2023-10-13T07:27:19;17.86;90.85
67157;SHT31;54086;50.126;8.710;2023-10-13T07:29:50;17.84;91.01
67157;SHT31;54086;50.126;8.710;2023-10-13T07:32:24;17.82;91.00
67157;SHT31;54086;50.126;8.710;2023-10-13T07:34:54;17.84;90.98
67157;SHT31;54086;50.126;8.710;2023-10-13T07:37:23;17.86;90.86
67157;SHT31;54086;50.126;8.710;2023-10-13T07:39:54;17.86;90.78
67157;SHT31;54086;50.126;8.710;2023-10-13T07:42:24;17.93;90.63
67157;SHT31;54086;50.126;8.710;2023-10-13T07:44:55;18.07;90.05
67157;SHT31;54086;50.126;8.710;2023-10-13T07:47:21;18.14;89.80
67157;SHT31;54086;50.126;8.710;2023-10-13T07:49:49;18.35;89.24
67157;SHT31;54086;50.126;8.710;2023-10-13T07:52:16;18.59;88.47
67157;SHT31;54086;50.126;8.710;2023-10-13T07:54:48;18.61;88.61
67157;SHT31;54086;50.126;8.710;2023-10-13T07:57:15;18.58;88.34
67157;SHT31;54086;50.126;8.710;2023-10-13T07:59:42;18.58;87.97
67157;SHT31;54086;50.126;8.710;2023-10-13T08:02:18;18.99;87.34
67157;SHT31;54086;50.126;8.710;2023-10-13T08:05:14;19.54;85.90
67157;SHT31;54086;50.126;8.710;2023-10-13T08:07:49;19.85;84.62
67157;SHT31;54086;50.126;8.710;2023-10-13T08:10:15;19.64;85.13
67157;SHT31;54086;50.126;8.710;2023-10-13T08:12:41;19.65;85.16
67157;SHT31;54086;50.126;8.710;2023-10-13T08:15:09;19.62;84.96
67157;SHT31;54086;50.126;8.710;2023-10-13T08:17:46;19.70;85.29
67157;SHT31;54086;50.126;8.710;2023-10-13T08:20:11;19.95;84.94
67157;SHT31;54086;50.126;8.710;2023-10-13T08:22:37;19.95;84.59
67157;SHT31;54086;50.126;8.710;2023-10-13T08:25:04;19.96;84.15
67157;SHT31;54086;50.126;8.710;2023-10-13T08:27:48;20.39;83.28
67157;SHT31;54086;50.126;8.710;2023-10-13T08:30:15;20.97;81.90
67157;SHT31;54086;50.126;8.710;2023-10-13T08:32:54;20.78;81.22
67157;SHT31;54086;50.126;8.710;2023-10-13T08:35:22;20.71;81.99
67157;SHT31;54086;50.126;8.710;2023-10-13T08:37:48;21.00;81.44
67157;SHT31;54086;50.126;8.710;2023-10-13T08:40:16;21.41;80.11
67157;SHT31;54086;50.126;8.710;2023-10-13T08:43:05;21.29;80.73
67157;SHT31;54086;50.126;8.710;2023-10-13T08:45:31;21.18;81.04
67157;SHT31;54086;50.126;8.710;2023-10-13T08:48:01;20.78;82.07
67157;SHT31;54086;50.126;8.710;2023-10-13T08:50:42;20.46;82.48
67157;SHT31;54086;50.126;8.710;2023-10-13T08:53:24;20.26;82.24
67157;SHT31;54086;50.126;8.710;2023-10-13T08:58:31;20.22;82.31
67157;SHT31;54086;50.126;8.710;2023-10-13T09:01:15;20.95;81.08
67157;SHT31;54086;50.126;8.710;2023-10-13T09:04:03;21.07;79.16
67157;SHT31;54086;50.126;8.710;2023-10-13T09:06:46;20.97;79.64
67157;SHT31;54086;50.126;8.710;2023-10-13T09:12:25;20.76;80.60
67157;SHT31;54086;50.126;8.710;2023-10-13T09:15:06;20.78;80.16
67157;SHT31;54086;50.126;8.710;2023-10-13T09:17:52;20.77;80.33
67157;SHT31;54086;50.126;8.710;2023-10-13T09:20:30;20.95;79.80
67157;SHT31;54086;50.126;8.710;2023-10-13T09:23:13;20.98;79.07
67157;SHT31;54086;50.126;8.710;2023-10-13T09:25:49;21.50;78.15
67157;SHT31;54086;50.126;8.710;2023-10-13T09:28:27;21.55;77.62
67157;SHT31;54086;50.126;8.710;2023-10-13T09:30:54;21.62;77.40
67157;SHT31;54086;50.126;8.710;2023-10-13T09:33:31;21.22;77.59
67157;SHT31;54086;50.126;8.710;2023-10-13T09:36:06;21.17;77.83
67157;SHT31;54086;50.126;8.710;2023-10-13T09:38:34;21.12;78.19
67157;SHT31;54086;50.126;8.710;2023-10-13T09:41:00;21.24;77.82
67157;SHT31;54086;50.126;8.710;2023-10-13T09:43:46;21.80;76.28
67157;SHT31;54086;50.126;8.710;2023-10-13T09:46:19;21.83;76.03
67157;SHT31;54086;50.126;8.710;2023-10-13T09:48:46;21.67;76.21
67157;SHT31;54086;50.126;8.710;2023-10-13T09:51:16;21.60;76.39
67157;SHT31;54086;50.126;8.710;2023-10-13T09:53:52;22.54;74.06
67157;SHT31;54086;50.126;8.710;2023-10-13T09:56:32;23.02;72.70
67157;SHT31;54086;50.126;8.710;2023-10-13T09:59:20;23.34;71.46
67157;SHT31;54086;50.126;8.710;2023-10-13T10:01:48;23.73;70.15
67157;SHT31;54086;50.126;8.710;2023-10-13T10:04:20;24.01;69.65
67157;SHT31;54086;50.126;8.710;2023-10-13T10:10:22;23.88;69.73
67157;SHT31;54086;50.126;8.710;2023-10-13T10:15:43;23.65;70.05
67157;SHT31;54086;50.126;8.710;2023-10-13T10:18:23;23.34;70.65
67157;SHT31;54086;50.126;8.710;2023-10-13T10:21:15;23.65;70.36
67157;SHT31;54086;50.126;8.710;2023-10-13T10:23:52;23.46;70.35
67157;SHT31;54086;50.126;8.710;2023-10-13T10:26:18;24.53;68.44
67157;SHT31;54086;50.126;8.710;2023-10-13T10:28:47;24.49;68.32
67157;SHT31;54086;50.126;8.710;2023-10-13T10:31:13;24.48;68.50
67157;SHT31;54086;50.126;8.710;2023-10-13T10:33:49;24.42;68.65
67157;SHT31;54086;50.126;8.710;2023-10-13T10:36:29;24.43;68.32
67157;SHT31;54086;50.126;8.710;2023-10-13T10:38:56;24.37;68.38
67157;SHT31;54086;50.126;8.710;2023-10-13T10:41:27;24.60;68.12
67157;SHT31;54086;50.126;8.710;2023-10-13T10:44:15;25.44;66.17
67157;SHT31;54086;50.126;8.710;2023-10-13T10:46:41;25.46;65.85
67157;SHT31;54086;50.126;8.710;2023-10-13T10:49:18;25.37;65.98
67157;SHT31;54086;50.126;8.710;2023-10-13T10:51:58;24.79;67.12
67157;SHT31;54086;50.126;8.710;2023-10-13T10:54:26;24.29;68.35
67157;SHT31;54086;50.126;8.710;2023-10-13T10:57:00;23.91;68.86
67157;SHT31;54086;50.126;8.710;2023-10-13T10:59:42;23.81;69.10
67157;SHT31;54086;50.126;8.710;2023-10-13T11:02:07;23.67;69.53
67157;SHT31;54086;50.126;8.710;2023-10-13T11:04:34;24.88;67.06
67157;SHT31;54086;50.126;8.710;2023-10-13T11:07:06;25.42;65.76
67157;SHT31;54086;50.126;8.710;2023-10-13T11:09:33;25.42;66.22
67157;SHT31;54086;50.126;8.710;2023-10-13T11:14:49;26.95;63.02
67157;SHT31;54086;50.126;8.710;2023-10-13T11:17:25;26.34;63.63
67157;SHT31;54086;50.126;8.710;2023-10-13T11:20:15;26.30;63.97
67157;SHT31;54086;50.126;8.710;2023-10-13T11:22:45;26.10;64.79
67157;SHT31;54086;50.126;8.710;2023-10-13T11:25:26;25.78;65.34
67157;SHT31;54086;50.126;8.710;2023-10-13T11:27:56;26.40;63.91
67157;SHT31;54086;50.126;8.710;2023-10-13T11:30:23;25.94;64.46
67157;SHT31;54086;50.126;8.710;2023-10-13T11:33:05;26.57;63.42
67157;SHT31;54086;50.126;8.710;2023-10-13T11:35:32;26.84;63.17
67157;SHT31;54086;50.126;8.710;2023-10-13T11:38:16;27.30;62.01
67157;SHT31;54086;50.126;8.710;2023-10-13T11:40:52;27.23;61.97
67157;SHT31;54086;50.126;8.710;2023-10-13T11:46:01;26.47;63.64
67157;SHT31;54086;50.126;8.710;2023-10-13T11:48:36;25.83;64.82
67157;SHT31;54086;50.126;8.710;2023-10-13T11:51:06;25.76;65.28
67157;SHT31;54086;50.126;8.710;2023-10-13T11:53:43;25.55;66.04
67157;SHT31;54086;50.126;8.710;2023-10-13T11:56:10;26.19;64.66
67157;SHT31;54086;50.126;8.710;2023-10-13T11:58:39;25.68;65.52
67157;SHT31;54086;50.126;8.710;2023-10-13T12:01:06;25.99;64.85
67157;SHT31;54086;50.126;8.710;2023-10-13T12:03:44;25.49;65.86
67157;SHT31;54086;50.126;8.710;2023-10-13T12:06:29;25.25;66.41
67157;SHT31;54086;50.126;8.710;2023-10-13T12:14:15;26.13;64.82
67157;SHT31;54086;50.126;8.710;2023-10-13T12:17:06;26.23;64.74
67157;SHT31;54086;50.126;8.710;2023-10-13T12:19:36;26.71;63.79
67157;SHT31;54086;50.126;8.710;2023-10-13T12:22:01;26.40;64.24
67157;SHT31;54086;50.126;8.710;2023-10-13T12:24:39;26.29;64.85
67157;SHT31;54086;50.126;8.710;2023-10-13T12:27:06;26.19;65.20
67157;SHT31;54086;50.126;8.710;2023-10-13T12:29:48;25.46;66.43
67157;SHT31;54086;50.126;8.710;2023-10-13T12:32:14;25.57;66.55
67157;SHT31;54086;50.126;8.710;2023-10-13T12:34:45;26.48;64.92
67157;SHT31;54086;50.126;8.710;2023-10-13T12:37:30;26.64;64.20
67157;SHT31;54086;50.126;8.710;2023-10-13T12:40:11;26.90;63.69
67157;SHT31;54086;50.126;8.710;2023-10-13T12:42:55;26.58;64.14
67157;SHT31;54086;50.126;8.710;2023-10-13T12:45:51;26.02;65.02
67157;SHT31;54086;50.126;8.710;2023-10-13T12:48:36;25.68;65.76
67157;SHT31;54086;50.126;8.710;2023-10-13T12:51:20;25.52;66.27
67157;SHT31;54086;50.126;8.710;2023-10-13T12:53:51;25.51;66.29
67157;SHT31;54086;50.126;8.710;2023-10-13T12:56:18;25.57;66.63
67157;SHT31;54086;50.126;8.710;2023-10-13T12:58:51;25.55;66.69
67157;SHT31;54086;50.126;8.710;2023-10-13T13:01:25;25.73;66.24
67157;SHT31;54086;50.126;8.710;2023-10-13T13:03:58;25.59;66.01
67157;SHT31;54086;50.126;8.710;2023-10-13T13:06:26;25.48;66.02
67157;SHT31;54086;50.126;8.710;2023-10-13T13:08:59;25.51;65.65
67157;SHT31;54086;50.126;8.710;2023-10-13T13:11:26;25.44;65.82
67157;SHT31;54086;50.126;8.710;2023-10-13T13:13:54;25.59;65.42
67157;SHT31;54086;50.126;8.710;2023-10-13T13:16:19;25.65;65.48
67157;SHT31;54086;50.126;8.710;2023-10-13T13:18:51;25.72;65.09
67157;SHT31;54086;50.126;8.710;2023-10-13T13:21:20;25.99;64.50
67157;SHT31;54086;50.126;8.710;2023-10-13T13:23:48;26.20;64.70
67157;SHT31;54086;50.126;8.710;2023-10-13T13:26:14;26.34;63.76
67157;SHT31;54086;50.126;8.710;2023-10-13T13:28:44;26.51;63.58
67157;SHT31;54086;50.126;8.710;2023-10-13T13:31:09;26.64;63.63
67157;SHT31;54086;50.126;8.710;2023-10-13T13:33:38;26.58;63.76
67157;SHT31;54086;50.126;8.710;2023-10-13T13:36:07;26.60;63.75
67157;SHT31;54086;50.126;8.710;2023-10-13T13:38:38;26.77;63.03
67157;SHT31;54086;50.126;8.710;2023-10-13T13:41:11;26.81;62.59
67157;SHT31;54086;50.126;8.710;2023-10-13T13:43:40;26.92;62.57
67157;SHT31;54086;50.126;8.710;2023-10-13T13:46:22;26.96;62.46
67157;SHT31;54086;50.126;8.710;2023-10-13T13:48:52;27.01;62.55
67157;SHT31;54086;50.126;8.710;2023-10-13T13:51:27;26.84;62.70
67157;SHT31;54086;50.126;8.710;2023-10-13T13:53:54;26.65;63.15
67157;SHT31;54086;50.126;8.710;2023-10-13T13:56:20;26.47;63.35
67157;SHT31;54086;50.126;8.710;2023-10-13T13:58:47;26.40;63.45
67157;SHT31;54086;50.126;8.710;2023-10-13T14:01:13;26.34;63.41
67157;SHT31;54086;50.126;8.710;2023-10-13T14:03:40;26.19;63.44
67157;SHT31;54086;50.126;8.710;2023-10-13T14:06:22;26.30;63.47
67157;SHT31;54086;50.126;8.710;2023-10-13T14:08:52;26.26;62.96
67157;SHT31;54086;50.126;8.710;2023-10-13T14:11:20;26.24;63.03
67157;SHT31;54086;50.126;8.710;2023-10-13T14:14:11;26.36;63.11
67157;SHT31;54086;50.126;8.710;2023-10-13T14:17:05;26.23;63.44
67157;SHT31;54086;50.126;8.710;2023-10-13T14:19:35;26.07;63.81
67157;SHT31;54086;50.126;8.710;2023-10-13T14:22:05;26.12;63.71
67157;SHT31;54086;50.126;8.710;2023-10-13T14:24:37;26.12;63.63
67157;SHT31;54086;50.126;8.710;2023-10-13T14:27:09;26.16;62.72
67157;SHT31;54086;50.126;8.710;2023-10-13T14:29:41;26.26;61.69
67157;SHT31;54086;50.126;8.710;2023-10-13T14:32:13;26.36;60.64
67157;SHT31;54086;50.126;8.710;2023-10-13T14:34:44;26.33;60.19
67157;SHT31;54086;50.126;8.710;2023-10-13T14:37:11;26.41;59.42
67157;SHT31;54086;50.126;8.710;2023-10-13T14:39:46;26.39;58.83
67157;SHT31;54086;50.126;8.710;2023-10-13T14:42:11;26.34;58.30
67157;SHT31;54086;50.126;8.710;2023-10-13T14:44:37;26.31;58.65
67157;SHT31;54086;50.126;8.710;2023-10-13T14:47:02;26.27;59.01
67157;SHT31;54086;50.126;8.710;2023-10-13T14:49:30;26.27;58.84
67157;SHT31;54086;50.126;8.710;2023-10-13T14:51:56;26.20;58.99
67157;SHT31;54086;50.126;8.710;2023-10-13T14:54:24;26.22;59.17
67157;SHT31;54086;50.126;8.710;2023-10-13T14:57:02;26.12;59.19
67157;SHT31;54086;50.126;8.710;2023-10-13T14:59:28;26.02;59.05
67157;SHT31;54086;50.126;8.710;2023-10-13T15:01:59;25.96;59.16
67157;SHT31;54086;50.126;8.710;2023-10-13T15:04:24;25.86;59.60
67157;SHT31;54086;50.126;8.710;2023-10-13T15:06:50;25.81;59.79
67157;SHT31;54086;50.126;8.710;2023-10-13T15:09:15;25.73;59.51
67157;SHT31;54086;50.126;8.710;2023-10-13T15:11:51;25.72;59.04
67157;SHT31;54086;50.126;8.710;2023-10-13T15:14:20;25.75;58.64
67157;SHT31;54086;50.126;8.710;2023-10-13T15:16:46;25.72;58.38
67157;SHT31;54086;50.126;8.710;2023-10-13T15:19:11;25.62;58.61
67157;SHT31;54086;50.126;8.710;2023-10-13T15:21:37;25.63;58.39
67157;SHT31;54086;50.126;8.710;2023-10-13T15:24:06;25.58;58.46
67157;SHT31;54086;50.126;8.710;2023-10-13T15:26:42;25.55;58.43
67157;SHT31;54086;50.126;8.710;2023-10-13T15:29:13;25.52;58.73
67157;SHT31;54086;50.126;8.710;2023-10-13T15:31:42;25.52;58.26
67157;SHT31;54086;50.126;8.710;2023-10-13T15:34:13;25.52;58.27
67157;SHT31;54086;50.126;8.710;2023-10-13T15:36:43;25.51;57.69
67157;SHT31;54086;50.126;8.710;2023-10-13T15:39:09;25.55;57.18
67157;SHT31;54086;50.126;8.710;2023-10-13T15:41:36;25.49;57.62
67157;SHT31;54086;50.126;8.710;2023-10-13T15:44:10;25.44;57.33
67157;SHT31;54086;50.126;8.710;2023-10-13T15:46:36;25.37;57.55
67157;SHT31;54086;50.126;8.710;2023-10-13T15:49:02;25.35;57.60
67157;SHT31;54086;50.126;8.710;2023-10-13T15:51:34;25.28;57.77
67157;SHT31;54086;50.126;8.710;2023-10-13T15:54:02;25.21;57.98
67157;SHT31;54086;50.126;8.710;2023-10-13T15:56:28;25.21;57.98
67157;SHT31;54086;50.126;8.710;2023-10-13T15:58:57;25.10;58.43
67157;SHT31;54086;50.126;8.710;2023-10-13T16:01:22;25.10;58.47
67157;SHT31;54086;50.126;8.710;2023-10-13T16:03:48;25.01;58.85
67157;SHT31;54086;50.126;8.710;2023-10-13T16:06:17;24.90;59.33
67157;SHT31;54086;50.126;8.710;2023-10-13T16:08:44;24.86;59.37
67157;SHT31;54086;50.126;8.710;2023-10-13T16:11:12;24.74;60.23
67157;SHT31;54086;50.126;8.710;2023-10-13T16:13:46;24.63;60.01
67157;SHT31;54086;50.126;8.710;2023-10-13T16:16:15;24.57;60.21
67157;SHT31;54086;50.126;8.710;2023-10-13T16:18:42;24.52;60.14
67157;SHT31;54086;50.126;8.710;2023-10-13T16:21:10;24.43;60.80
67157;SHT31;54086;50.126;8.710;2023-10-13T16:23:40;24.36;61.09
67157;SHT31;54086;50.126;8.710;2023-10-13T16:26:07;24.35;61.43
67157;SHT31;54086;50.126;8.710;2023-10-13T16:28:37;24.24;61.89
67157;SHT31;54086;50.126;8.710;2023-10-13T16:31:06;24.16;61.56
67157;SHT31;54086;50.126;8.710;2023-10-13T16:33:35;24.08;62.26